Time;durP1;ratioP1;P1;durP2;ratioP2;P2;SDS_P1;SDS_P2;PMS_P1;PMS_P2;Temp;Humidity;BMP_temperature;BMP_pressure;BME280_temperature;BME280_humidity;BME280_pressure;Samples;Min_cycle;Max_cycle;Signal;HPM_P1;HPM_P2
2022/06/25 00:02:01;;;;;;;5.85;4.10;;;;;;;16.49;89.07;96733.50;4984399;28;20050;-63
2022/06/25 00:07:13;;;;;;;6.80;4.35;;;;;;;16.87;87.40;96787.41;4985507;28;20050;-63
2022/06/25 00:09:40;;;;;;;7.25;4.00;;;;;;;16.84;87.80;96781.84;4986107;28;20069;-63
2022/06/25 00:14:52;;;;;;;8.27;5.07;;;;;;;16.76;89.63;96774.75;4985441;28;20058;-63
2022/06/25 00:17:20;;;;;;;9.88;4.53;;;;;;;16.67;89.48;96755.69;4985265;28;20065;-63
2022/06/25 00:19:47;;;;;;;7.53;4.63;;;;;;;16.79;89.73;96799.13;4985631;28;20527;-64
2022/06/25 00:22:14;;;;;;;6.53;3.90;;;;;;;16.73;89.66;96786.75;4985612;28;20050;-63
2022/06/25 00:24:41;;;;;;;5.57;4.20;;;;;;;16.69;90.58;96774.84;4984254;28;20066;-64
2022/06/25 00:27:07;;;;;;;5.72;4.65;;;;;;;16.69;90.80;96774.84;4985254;28;20058;-64
2022/06/25 00:29:34;;;;;;;6.30;4.10;;;;;;;16.65;90.14;96774.88;4985364;28;20055;-63
2022/06/25 00:32:01;;;;;;;5.63;4.57;;;;;;;16.51;90.23;96759.06;4983795;28;20050;-63
2022/06/25 00:34:28;;;;;;;5.47;4.43;;;;;;;16.12;90.19;96713.88;4983905;28;20050;-64
2022/06/25 00:36:54;;;;;;;7.38;4.32;;;;;;;16.58;90.08;96781.34;4984529;28;20058;-62
2022/06/25 00:39:21;;;;;;;6.90;3.85;;;;;;;16.26;89.55;96729.72;4985116;28;20058;-65
2022/06/25 00:41:48;;;;;;;5.97;4.28;;;;;;;16.52;91.72;96780.19;4983938;28;20061;-65
2022/06/25 00:44:16;;;;;;;8.32;4.43;;;;;;;16.38;92.45;96760.75;4985035;28;20065;-63
2022/06/25 00:46:46;;;;;;;7.35;4.95;;;;;;;16.01;92.91;96718.78;4983633;28;20120;-63
2022/06/25 00:49:13;;;;;;;5.05;4.07;;;;;;;16.52;92.81;96774.59;4985342;28;20062;-63
2022/06/25 00:51:41;;;;;;;7.15;4.90;;;;;;;16.53;92.07;96761.44;4984939;28;20065;-64
2022/06/25 00:54:09;;;;;;;6.63;4.75;;;;;;;16.55;92.41;96765.38;4984965;28;20442;-63
2022/06/25 00:56:39;;;;;;;6.78;4.43;;;;;;;16.40;91.80;96735.97;4983537;28;20065;-63
2022/06/25 00:59:06;;;;;;;8.05;4.07;;;;;;;15.64;90.73;96604.25;4983510;28;20058;-63
2022/06/25 01:01:34;;;;;;;4.53;4.10;;;;;;;16.53;89.76;96751.03;4984775;28;20058;-64
2022/06/25 01:04:02;;;;;;;5.68;4.57;;;;;;;16.48;90.03;96748.69;4985171;28;20054;-63
2022/06/25 01:06:29;;;;;;;6.38;4.65;;;;;;;16.43;90.21;96740.72;4985317;28;20053;-63
2022/06/25 01:08:57;;;;;;;5.60;4.45;;;;;;;16.46;90.90;96739.94;4984879;28;20537;-63
2022/06/25 01:11:24;;;;;;;5.35;4.30;;;;;;;16.42;91.69;96743.94;4983207;28;20062;-64
2022/06/25 01:13:52;;;;;;;6.85;4.28;;;;;;;15.73;91.42;96646.44;4984689;28;20061;-65
2022/06/25 01:16:22;;;;;;;4.45;4.05;;;;;;;16.19;92.97;96752.16;4983711;28;20054;-63
2022/06/25 01:18:49;;;;;;;6.60;4.18;;;;;;;16.11;93.24;96745.84;4984832;28;20054;-63
2022/06/25 01:21:16;;;;;;;7.18;4.75;;;;;;;15.96;94.92;96744.41;4984851;28;20065;-63
2022/06/25 01:23:43;;;;;;;10.48;4.70;;;;;;;15.63;94.81;96680.84;4983484;28;20054;-63
2022/06/25 01:26:10;;;;;;;6.95;4.70;;;;;;;14.89;94.18;96557.84;4988477;28;20058;-65
2022/06/25 01:28:37;;;;;;;6.07;4.63;;;;;;;15.76;94.64;96704.25;4987289;28;20054;-63
2022/06/25 01:31:03;;;;;;;5.68;4.20;;;;;;;15.92;95.83;96726.84;4988459;28;20082;-64
2022/06/25 01:33:30;;;;;;;6.38;4.32;;;;;;;15.72;96.33;96697.91;4987256;28;20618;-63
2022/06/25 01:35:57;;;;;;;5.25;4.45;;;;;;;15.73;96.49;96702.28;4988108;28;20430;-63
2022/06/25 01:38:23;;;;;;;5.30;4.28;;;;;;;15.76;95.94;96729.38;4988548;28;20058;-64
2022/06/25 01:40:51;;;;;;;6.07;5.30;;;;;;;15.60;96.26;96698.41;4988497;28;20479;-62
2022/06/25 01:43:18;;;;;;;5.35;4.18;;;;;;;15.91;96.23;96730.88;4987888;28;20065;-64
2022/06/25 01:45:44;;;;;;;7.15;4.90;;;;;;;15.16;97.36;96650.88;4986611;28;20050;-63
2022/06/25 01:48:11;;;;;;;7.43;4.88;;;;;;;15.68;97.52;96699.94;4988317;28;20061;-63
2022/06/25 01:50:38;;;;;;;5.00;4.38;;;;;;;15.83;97.18;96734.13;4986789;28;20062;-64
2022/06/25 01:53:06;;;;;;;7.13;4.60;;;;;;;15.65;97.10;96689.59;4988137;28;20058;-63
2022/06/25 01:55:32;;;;;;;8.10;4.65;;;;;;;15.69;96.34;96707.13;4988037;28;20050;-63
2022/06/25 01:57:59;;;;;;;10.07;4.78;;;;;;;16.07;95.52;96739.50;4986393;28;20133;-63
2022/06/25 02:00:29;;;;;;;5.80;4.45;;;;;;;16.13;95.09;96737.03;4987851;28;20062;-63
2022/06/25 02:02:56;;;;;;;8.13;4.97;;;;;;;16.02;94.44;96739.94;4987817;28;20493;-62
2022/06/25 02:08:13;;;;;;;6.72;5.03;;;;;;;15.90;95.42;96740.44;4987730;28;20050;-63
2022/06/25 02:10:41;;;;;;;5.32;4.22;;;;;;;15.51;94.99;96667.38;4986167;28;20116;-64
2022/06/25 02:13:08;;;;;;;9.07;4.65;;;;;;;15.82;95.70;96722.16;4987753;28;20058;-63
2022/06/25 02:15:35;;;;;;;6.97;4.60;;;;;;;15.40;96.60;96689.00;4987786;28;20050;-62
2022/06/25 02:18:02;;;;;;;8.48;4.80;;;;;;;15.83;95.11;96718.16;4987696;28;20054;-63
2022/06/25 02:20:29;;;;;;;6.18;4.60;;;;;;;15.70;94.79;96708.69;4986214;28;20058;-63
2022/06/25 02:22:56;;;;;;;5.55;4.55;;;;;;;15.29;94.29;96660.34;4985737;28;20057;-64
2022/06/25 02:25:23;;;;;;;6.88;4.50;;;;;;;15.70;94.24;96742.19;4986241;28;20634;-63
2022/06/25 02:27:49;;;;;;;9.73;5.05;;;;;;;15.26;95.46;96677.09;4986304;28;20050;-64
2022/06/25 02:30:16;;;;;;;6.47;4.80;;;;;;;15.25;96.39;96698.66;4987285;28;20088;-64
2022/06/25 02:32:43;;;;;;;5.60;4.53;;;;;;;15.22;96.74;96688.31;4986210;28;20054;-63
2022/06/25 02:35:10;;;;;;;6.30;4.93;;;;;;;15.51;96.77;96739.94;4987458;28;20065;-64
2022/06/25 02:37:37;;;;;;;8.32;5.32;;;;;;;15.27;96.35;96696.22;4986390;28;20058;-63
2022/06/25 02:40:04;;;;;;;6.63;4.82;;;;;;;15.54;96.94;96738.34;4986928;28;20055;-63
2022/06/25 02:42:35;;;;;;;8.25;4.50;;;;;;;15.57;96.25;96738.31;4987261;28;20061;-63
2022/06/25 02:45:03;;;;;;;7.32;5.00;;;;;;;14.95;96.37;96648.25;4985900;28;20058;-63
2022/06/25 02:47:31;;;;;;;5.90;4.47;;;;;;;15.58;96.02;96751.09;4986022;28;20484;-65
2022/06/25 02:49:58;;;;;;;9.88;4.60;;;;;;;14.97;96.50;96662.53;4985686;28;20057;-63
2022/06/25 02:52:25;;;;;;;5.88;4.35;;;;;;;15.41;96.52;96718.50;4985770;28;20063;-63
2022/06/25 02:54:53;;;;;;;7.00;4.90;;;;;;;15.25;97.10;96693.06;4985567;28;20058;-63
2022/06/25 03:00:06;;;;;;;8.73;5.15;;;;;;;15.57;96.91;96759.88;4987223;28;20497;-64
2022/06/25 03:02:33;;;;;;;6.65;5.20;;;;;;;15.27;97.30;96718.56;4986970;28;20509;-63
2022/06/25 03:05:00;;;;;;;6.05;4.75;;;;;;;15.54;97.09;96766.28;4987155;28;20432;-63
2022/06/25 03:07:27;;;;;;;8.25;5.15;;;;;;;15.52;97.31;96758.31;4985176;28;20489;-65
2022/06/25 03:09:53;;;;;;;5.80;4.88;;;;;;;15.20;97.43;96718.63;4985009;28;20054;-63
2022/06/25 03:12:20;;;;;;;6.55;5.47;;;;;;;15.11;97.07;96695.97;4986817;28;20050;-64
2022/06/25 03:14:47;;;;;;;7.22;4.88;;;;;;;15.57;96.88;96777.41;4986391;28;20046;-62
2022/06/25 03:17:13;;;;;;;6.72;4.80;;;;;;;14.91;96.53;96658.59;4985455;28;20060;-63
2022/06/25 03:19:40;;;;;;;5.38;4.88;;;;;;;15.35;96.49;96753.59;4986729;28;20069;-62
2022/06/25 03:22:07;;;;;;;6.90;5.80;;;;;;;15.64;95.03;96788.53;4986893;28;20050;-63
2022/06/25 03:24:34;;;;;;;6.43;5.65;;;;;;;14.97;94.80;96685.66;4986534;28;20188;-62
2022/06/25 03:27:01;;;;;;;10.15;5.75;;;;;;;15.61;94.64;96799.72;4986269;28;20480;-63
2022/06/25 03:29:27;;;;;;;10.38;6.00;;;;;;;15.08;95.74;96721.84;4986376;28;20058;-63
2022/06/25 03:31:54;;;;;;;7.07;5.65;;;;;;;15.64;94.83;96785.75;4986524;28;20053;-63
2022/06/25 03:34:21;;;;;;;10.43;6.47;;;;;;;15.54;94.69;96749.53;4986527;28;20077;-64
2022/06/25 03:36:47;;;;;;;13.00;6.65;;;;;;;15.57;93.49;96732.72;4986090;28;20054;-63
2022/06/25 03:39:14;;;;;;;7.60;6.65;;;;;;;15.59;92.85;96702.41;4984635;28;20050;-63
2022/06/25 03:41:41;;;;;;;9.15;5.25;;;;;;;15.68;92.40;96718.69;4986099;28;20058;-62
2022/06/25 03:44:10;;;;;;;6.45;5.75;;;;;;;16.18;92.87;96798.88;4984826;28;20054;-63
2022/06/25 03:46:38;;;;;;;7.32;5.68;;;;;;;16.21;93.34;96774.91;4984227;28;20054;-63
2022/06/25 03:49:06;;;;;;;8.77;5.30;;;;;;;16.33;92.66;96774.38;4984651;28;20591;-63
2022/06/25 03:51:33;;;;;;;7.75;4.65;;;;;;;16.34;92.69;96776.75;4984582;28;20060;-65
2022/06/25 03:54:00;;;;;;;6.53;5.03;;;;;;;16.18;92.04;96709.47;4984646;28;20050;-63
2022/06/25 03:56:27;;;;;;;7.80;4.80;;;;;;;16.28;91.27;96714.13;4986037;28;20058;-65
2022/06/25 03:58:53;;;;;;;5.78;4.97;;;;;;;16.52;89.36;96732.66;4985380;28;20476;-64
2022/06/25 04:01:23;;;;;;;7.50;4.55;;;;;;;16.90;88.84;96774.59;4984753;28;20063;-65
2022/06/25 04:03:50;;;;;;;6.97;4.95;;;;;;;17.09;87.90;96771.94;4984395;28;20121;-64
2022/06/25 04:06:17;;;;;;;6.80;5.10;;;;;;;17.04;88.35;96774.44;4985787;28;20513;-64
2022/06/25 04:08:44;;;;;;;6.68;5.25;;;;;;;16.61;87.79;96712.59;4985927;28;20469;-65
2022/06/25 04:11:11;;;;;;;7.07;5.43;;;;;;;17.16;87.49;96771.06;4985741;28;20065;-66
2022/06/25 04:13:37;;;;;;;7.93;5.28;;;;;;;17.31;87.15;96769.66;4985343;28;20061;-65
2022/06/25 04:16:04;;;;;;;8.98;6.15;;;;;;;17.52;85.99;96772.19;4985556;28;20054;-64
2022/06/25 04:18:31;;;;;;;7.43;5.80;;;;;;;17.47;86.19;96742.66;4985565;28;20512;-64
2022/06/25 04:20:59;;;;;;;8.45;5.80;;;;;;;17.83;85.76;96765.31;4983960;28;20157;-65
2022/06/25 04:23:27;;;;;;;10.38;6.03;;;;;;;17.14;83.95;96622.34;4984018;28;20054;-63
2022/06/25 04:25:54;;;;;;;9.82;5.53;;;;;;;18.16;83.12;96755.97;4984930;28;20076;-63
2022/06/25 04:31:06;;;;;;;12.95;6.28;;;;;;;18.67;81.05;96744.22;4985108;28;20054;-63
2022/06/25 04:33:34;;;;;;;8.88;6.13;;;;;;;18.72;79.79;96729.69;4983812;28;20069;-63
2022/06/25 04:36:00;;;;;;;7.03;5.15;;;;;;;18.67;79.14;96690.91;4983590;28;20042;-63
2022/06/25 04:38:27;;;;;;;7.28;5.25;;;;;;;18.60;78.35;96677.03;4985484;28;20059;-64
2022/06/25 04:40:54;;;;;;;7.90;5.55;;;;;;;19.19;76.84;96745.13;4984694;28;20050;-63
2022/06/25 04:43:21;;;;;;;7.10;5.55;;;;;;;19.40;76.40;96767.19;4984896;28;20116;-64
2022/06/25 04:45:48;;;;;;;7.70;5.10;;;;;;;19.51;75.94;96773.38;4985206;28;20054;-63
2022/06/25 04:48:14;;;;;;;8.43;6.78;;;;;;;19.44;74.73;96730.59;4985028;28;20054;-63
2022/06/25 04:50:43;;;;;;;6.95;5.82;;;;;;;19.87;74.41;96773.31;4984887;28;20373;-63
2022/06/25 04:53:11;;;;;;;7.88;5.18;;;;;;;19.67;74.41;96729.66;4984858;28;20054;-63
2022/06/25 04:55:38;;;;;;;6.75;5.65;;;;;;;20.09;73.72;96779.25;4983697;28;20137;-63
2022/06/25 04:58:05;;;;;;;16.17;6.90;;;;;;;19.29;73.50;96625.41;4983165;28;20058;-64
2022/06/25 05:00:32;;;;;;;37.63;11.50;;;;;;;19.87;75.84;96766.94;4984202;28;20061;-63
2022/06/25 05:03:06;;;;;;;20.27;8.68;;;;;;;19.71;76.78;96750.03;4984548;28;20154;-63
2022/06/25 05:05:33;;;;;;;11.40;5.95;;;;;;;20.34;75.29;96779.44;4983552;28;20518;-64
2022/06/25 05:08:00;;;;;;;10.57;6.05;;;;;;;20.20;74.10;96709.50;4983325;28;20533;-66
2022/06/25 05:10:27;;;;;;;7.35;5.60;;;;;;;20.92;72.49;96776.25;4984924;28;20060;-65
2022/06/25 05:13:12;;;;;;;8.63;5.10;;;;;;;21.02;70.24;96746.25;4984504;28;20057;-64
2022/06/25 05:15:41;;;;;;;7.80;5.28;;;;;;;20.86;69.14;96709.66;4984300;28;20069;-63
2022/06/25 05:18:09;;;;;;;7.88;5.35;;;;;;;21.50;68.69;96764.97;4984635;28;20061;-63
2022/06/25 05:20:39;;;;;;;10.25;6.07;;;;;;;21.60;68.11;96764.63;4984491;28;20069;-63
2022/06/25 05:23:07;;;;;;;15.68;6.53;;;;;;;21.36;67.36;96712.63;4984750;28;20374;-64
2022/06/25 05:25:34;;;;;;;16.83;7.55;;;;;;;21.82;67.47;96759.94;4982690;28;20081;-63
2022/06/25 05:28:02;;;;;;;10.88;5.20;;;;;;;21.98;67.26;96762.66;4984523;28;20054;-64
2022/06/25 05:30:29;;;;;;;7.68;5.22;;;;;;;22.19;66.62;96756.28;4983422;28;20054;-64
2022/06/25 05:32:56;;;;;;;8.23;5.60;;;;;;;22.29;66.18;96743.88;4982724;28;20070;-65
2022/06/25 05:35:23;;;;;;;7.53;4.97;;;;;;;22.21;64.71;96696.56;4984542;28;20065;-64
2022/06/25 05:37:50;;;;;;;7.22;5.32;;;;;;;22.81;63.89;96757.41;4984522;28;20077;-64
2022/06/25 05:40:18;;;;;;;8.23;5.20;;;;;;;22.75;63.66;96742.28;4982761;28;20050;-64
2022/06/25 05:42:45;;;;;;;8.77;5.03;;;;;;;22.89;63.66;96746.66;4984263;28;20070;-65
2022/06/25 05:45:12;;;;;;;9.18;5.60;;;;;;;23.04;63.01;96753.38;4984656;28;20065;-64
2022/06/25 05:47:39;;;;;;;7.65;4.60;;;;;;;23.15;61.46;96748.09;4984304;28;20121;-64
2022/06/25 05:50:07;;;;;;;6.97;5.10;;;;;;;22.85;60.57;96684.63;4984876;28;20050;-64
2022/06/25 05:52:34;;;;;;;7.53;6.75;;;;;;;22.48;59.18;96622.69;4983028;28;20042;-63
2022/06/25 05:55:01;;;;;;;9.93;7.47;;;;;;;23.59;56.85;96761.00;4984094;28;20983;-62
2022/06/25 05:57:28;;;;;;;8.57;6.93;;;;;;;23.78;55.18;96762.66;4978945;28;20058;-64
2022/06/25 05:59:55;;;;;;;9.63;5.68;;;;;;;23.85;56.64;96760.34;4972508;28;20177;-66
2022/06/25 06:02:22;;;;;;;5.50;5.00;;;;;;;23.82;56.96;96729.38;4968030;28;20505;-64
2022/06/25 06:04:49;;;;;;;6.68;5.35;;;;;;;24.20;54.65;96754.53;4979937;28;20050;-65
2022/06/25 06:07:15;;;;;;;7.53;5.13;;;;;;;24.40;53.28;96775.53;4983524;28;20050;-64
2022/06/25 06:09:42;;;;;;;4.70;4.28;;;;;;;24.38;52.96;96761.03;4979741;28;20694;-61
2022/06/25 06:12:09;;;;;;;7.25;4.88;;;;;;;23.91;53.63;96703.94;4982506;28;20510;-66
2022/06/25 06:14:36;;;;;;;6.45;5.10;;;;;;;23.84;53.41;96630.66;4983572;28;20046;-65
2022/06/25 06:17:03;;;;;;;8.57;4.88;;;;;;;24.52;53.54;96714.31;4986310;28;20054;-65
2022/06/25 06:19:30;;;;;;;6.70;4.25;;;;;;;24.90;53.14;96746.66;4986975;28;20137;-64
2022/06/25 06:21:56;;;;;;;5.65;4.13;;;;;;;25.13;52.66;96753.75;4983511;28;20054;-66
2022/06/25 06:24:23;;;;;;;9.25;4.13;;;;;;;25.37;51.97;96762.44;4987527;28;20054;-62
2022/06/25 06:26:50;;;;;;;5.70;3.90;;;;;;;25.18;52.29;96756.72;4987172;28;20066;-63
2022/06/25 06:29:17;;;;;;;5.35;4.15;;;;;;;25.19;52.00;96751.84;4984963;28;20054;-61
2022/06/25 06:31:44;;;;;;;4.90;4.05;;;;;;;25.23;51.60;96719.25;4987288;28;20077;-66
2022/06/25 06:34:11;;;;;;;7.25;4.30;;;;;;;25.67;49.64;96758.59;4984180;28;20602;-63
2022/06/25 06:36:37;;;;;;;6.75;4.20;;;;;;;24.86;49.45;96632.69;4984611;28;20917;-62
2022/06/25 06:39:04;;;;;;;6.50;3.97;;;;;;;25.09;49.06;96632.00;4985239;28;20050;-62
2022/06/25 06:41:31;;;;;;;3.90;3.50;;;;;;;25.78;47.96;96716.31;4982535;28;20058;-63
2022/06/25 06:43:57;;;;;;;4.10;3.80;;;;;;;25.98;48.58;96703.13;4982777;28;20062;-63
2022/06/25 06:46:24;;;;;;;6.22;4.32;;;;;;;26.41;47.98;96733.84;4986322;28;20513;-66
2022/06/25 06:48:51;;;;;;;5.53;4.65;;;;;;;26.31;49.51;96768.47;4986060;28;20046;-64
2022/06/25 06:51:18;;;;;;;5.15;4.65;;;;;;;25.94;48.71;96673.34;4986221;28;20061;-63
2022/06/25 06:53:45;;;;;;;5.60;5.07;;;;;;;26.33;48.66;96706.28;4978235;28;20204;-63
2022/06/25 06:56:11;;;;;;;7.18;4.70;;;;;;;26.65;48.38;96733.91;4983945;28;20058;-63
2022/06/25 06:58:38;;;;;;;5.53;4.97;;;;;;;26.72;48.64;96719.31;4984630;28;20536;-61
2022/06/25 07:01:05;;;;;;;7.18;4.65;;;;;;;26.73;48.12;96715.97;4984457;28;20055;-63
2022/06/25 07:03:32;;;;;;;5.57;5.03;;;;;;;27.07;47.83;96734.50;4985274;28;20056;-63
2022/06/25 07:05:59;;;;;;;8.75;4.70;;;;;;;27.14;48.31;96719.88;4983481;28;20054;-63
2022/06/25 07:08:26;;;;;;;5.03;4.53;;;;;;;26.99;48.05;96693.50;4981980;28;20050;-63
2022/06/25 07:10:53;;;;;;;5.50;4.97;;;;;;;26.22;47.84;96538.47;4984808;28;20600;-64
2022/06/25 07:13:20;;;;;;;4.63;4.22;;;;;;;27.32;46.78;96659.22;4984835;28;20058;-63
2022/06/25 07:15:46;;;;;;;10.43;4.60;;;;;;;27.59;47.20;96730.88;4986108;28;20054;-62
2022/06/25 07:18:13;;;;;;;6.85;4.78;;;;;;;27.60;46.51;96709.66;4984451;28;20054;-64
2022/06/25 07:20:40;;;;;;;4.25;3.92;;;;;;;27.46;47.36;96716.13;4984861;28;20054;-65
2022/06/25 07:23:07;;;;;;;4.43;3.97;;;;;;;27.58;46.72;96729.31;4985514;28;20872;-64
2022/06/25 07:25:33;;;;;;;5.35;4.85;;;;;;;27.63;46.12;96725.75;4982355;28;20054;-66
2022/06/25 07:28:00;;;;;;;6.90;4.30;;;;;;;27.77;45.46;96724.97;4983009;28;20057;-65
2022/06/25 07:30:27;;;;;;;5.38;4.43;;;;;;;27.43;46.23;96688.66;4983304;28;20418;-66
2022/06/25 07:32:54;;;;;;;4.80;4.40;;;;;;;27.85;45.50;96699.75;4981437;28;20088;-67
2022/06/25 07:35:20;;;;;;;9.02;4.57;;;;;;;28.15;44.05;96722.00;4983905;28;20065;-66
2022/06/25 07:37:47;;;;;;;4.93;4.53;;;;;;;27.82;44.31;96675.88;4981888;28;20054;-64
2022/06/25 07:40:22;;;;;;;5.80;5.07;;;;;;;28.09;44.29;96718.28;4974864;28;20057;-61
2022/06/25 07:42:48;;;;;;;5.45;4.90;;;;;;;28.36;44.32;96716.34;4982392;28;20580;-63
2022/06/25 07:45:15;;;;;;;4.53;4.03;;;;;;;28.52;44.20;96721.50;4975277;28;20070;-61
2022/06/25 07:47:42;;;;;;;5.13;4.40;;;;;;;28.59;43.28;96723.97;4970415;28;20046;-62
2022/06/25 07:52:55;;;;;;;4.35;3.95;;;;;;;28.30;40.65;96721.97;4972870;28;20038;-62
2022/06/25 07:55:21;;;;;;;4.50;4.10;;;;;;;28.41;41.50;96724.97;4981132;28;20058;-65
2022/06/25 07:57:48;;;;;;;5.75;4.50;;;;;;;28.89;41.09;96729.03;4981092;28;20058;-64
2022/06/25 08:00:15;;;;;;;6.68;4.35;;;;;;;28.78;40.81;96693.88;4981613;28;20468;-62
2022/06/25 08:02:42;;;;;;;4.57;4.13;;;;;;;29.14;40.95;96722.63;4984054;28;20077;-65
2022/06/25 08:05:09;;;;;;;5.35;4.32;;;;;;;28.90;40.45;96661.34;4981492;28;20120;-64
2022/06/25 08:07:36;;;;;;;7.53;4.13;;;;;;;29.15;39.66;96712.00;4981552;28;20058;-65
2022/06/25 08:10:04;;;;;;;5.35;4.18;;;;;;;29.27;38.10;96713.69;4974169;28;20435;-65
2022/06/25 08:12:31;;;;;;;4.00;3.78;;;;;;;29.40;37.88;96722.66;4982119;28;20496;-64
2022/06/25 08:14:58;;;;;;;4.45;4.05;;;;;;;29.38;37.32;96711.75;4976960;28;20057;-63
2022/06/25 08:17:25;;;;;;;4.88;4.18;;;;;;;28.14;38.02;96548.72;4977519;28;20607;-67
2022/06/25 08:19:52;;;;;;;4.35;4.00;;;;;;;29.49;39.28;96696.78;4982389;28;20055;-63
2022/06/25 08:22:19;;;;;;;4.45;4.05;;;;;;;29.95;38.63;96705.28;4983718;28;20050;-64
2022/06/25 08:24:45;;;;;;;4.80;4.25;;;;;;;29.51;38.45;96600.03;4984986;28;20054;-65
2022/06/25 08:27:12;;;;;;;4.22;3.92;;;;;;;29.33;37.75;96631.75;4984711;28;20053;-61
2022/06/25 08:29:39;;;;;;;4.60;4.18;;;;;;;28.44;38.53;96669.81;4983476;28;20054;-61
2022/06/25 08:32:06;;;;;;;8.55;4.93;;;;;;;29.18;38.98;96696.75;4983946;28;20455;-60
2022/06/25 08:34:33;;;;;;;4.72;4.43;;;;;;;29.29;37.95;96700.47;4984599;28;20054;-62
2022/06/25 08:37:00;;;;;;;7.68;4.60;;;;;;;29.13;37.96;96692.50;4983614;28;20082;-62
2022/06/25 08:39:26;;;;;;;6.43;4.15;;;;;;;29.24;38.33;96706.13;4984525;28;20050;-63
2022/06/25 08:41:53;;;;;;;4.53;4.20;;;;;;;29.27;38.12;96702.28;4984377;28;20058;-62
2022/06/25 08:44:20;;;;;;;4.20;3.90;;;;;;;29.41;37.62;96696.47;4983544;28;20153;-63
2022/06/25 08:46:48;;;;;;;5.07;4.57;;;;;;;29.23;37.46;96650.34;4984589;28;20105;-61
2022/06/25 08:49:17;;;;;;;4.55;4.15;;;;;;;28.93;37.38;96603.31;4984621;28;20073;-62
2022/06/25 08:51:45;;;;;;;4.95;4.55;;;;;;;28.23;38.34;96537.19;4984243;28;20065;-61
2022/06/25 08:54:12;;;;;;;3.85;3.55;;;;;;;28.71;38.02;96688.59;4983089;28;20054;-62
2022/06/25 08:56:41;;;;;;;4.95;4.43;;;;;;;29.04;38.92;96677.59;4982827;28;20086;-61
2022/06/25 08:59:08;;;;;;;5.72;5.03;;;;;;;29.46;37.20;96706.38;4984770;28;20423;-61
2022/06/25 09:01:35;;;;;;;4.03;3.72;;;;;;;28.79;37.82;96644.13;4984349;28;20080;-63
2022/06/25 09:04:02;;;;;;;4.07;3.78;;;;;;;28.14;39.49;96672.00;4984436;28;20078;-62
2022/06/25 09:06:29;;;;;;;8.13;4.53;;;;;;;28.12;39.20;96586.25;4984410;28;20050;-62
2022/06/25 09:09:11;;;;;;;4.85;4.45;;;;;;;29.25;38.18;96696.28;4984207;28;20156;-63
2022/06/25 09:11:51;;;;;;;6.03;4.63;;;;;;;27.65;37.69;96435.72;4984590;28;20073;-63
2022/06/25 09:14:27;;;;;;;5.78;4.68;;;;;;;29.28;37.51;96698.13;4984649;28;20047;-62
2022/06/25 09:16:55;;;;;;;4.30;4.00;;;;;;;28.45;38.28;96630.72;4982647;28;20129;-62
2022/06/25 09:19:36;;;;;;;4.18;3.85;;;;;;;29.35;37.31;96692.00;4984429;28;20465;-62
2022/06/25 09:22:08;;;;;;;8.18;5.90;;;;;;;29.82;37.87;96691.41;4983966;28;20097;-66
2022/06/25 09:24:50;;;;;;;4.97;3.88;;;;;;;30.32;35.92;96688.97;4984461;28;20058;-65
2022/06/25 09:27:33;;;;;;;4.50;4.10;;;;;;;30.39;35.78;96689.28;4984250;28;20055;-65
2022/06/25 09:30:16;;;;;;;4.75;4.18;;;;;;;29.77;36.46;96683.59;4982920;28;20054;-64
2022/06/25 09:32:45;;;;;;;7.75;4.53;;;;;;;28.60;36.33;96444.09;4984308;28;20055;-62
2022/06/25 09:35:40;;;;;;;6.28;5.75;;;;;;;30.75;36.33;96679.84;4983981;28;20633;-61
2022/06/25 09:38:14;;;;;;;4.60;4.15;;;;;;;31.00;35.59;96683.09;4982937;28;20494;-62
2022/06/25 09:40:49;;;;;;;6.97;5.60;;;;;;;31.17;35.05;96679.00;4984814;28;20058;-61
2022/06/25 09:43:22;;;;;;;8.15;4.63;;;;;;;31.37;34.58;96657.97;4984102;28;20416;-63
2022/06/25 09:45:51;;;;;;;4.65;4.30;;;;;;;31.63;34.70;96672.84;4984954;28;20580;-66
2022/06/25 09:48:26;;;;;;;4.13;3.83;;;;;;;31.92;33.78;96675.22;4987642;28;20054;-66
2022/06/25 09:51:13;;;;;;;6.53;4.38;;;;;;;32.07;33.71;96675.75;4986013;28;20051;-64
2022/06/25 09:53:55;;;;;;;7.30;5.40;;;;;;;32.05;33.34;96675.47;4987581;28;20089;-65
2022/06/25 09:56:26;;;;;;;4.53;4.18;;;;;;;32.24;33.49;96667.91;4987999;28;20054;-64
2022/06/25 09:58:53;;;;;;;4.75;4.35;;;;;;;31.75;32.97;96677.28;4987700;28;20050;-65
2022/06/25 10:01:25;;;;;;;4.38;4.07;;;;;;;31.49;33.69;96671.03;4987530;28;20058;-65
2022/06/25 10:03:53;;;;;;;5.32;3.97;;;;;;;31.47;33.18;96647.84;4987502;28;20051;-66
2022/06/25 10:06:23;;;;;;;5.05;4.45;;;;;;;31.67;33.85;96687.69;4986572;28;20457;-65
2022/06/25 10:08:55;;;;;;;5.25;4.03;;;;;;;31.90;32.73;96683.59;4985720;28;20089;-65
2022/06/25 10:11:25;;;;;;;4.18;3.67;;;;;;;32.10;31.75;96671.84;4984872;28;20066;-63
2022/06/25 10:13:53;;;;;;;3.85;3.60;;;;;;;32.26;33.08;96676.78;4985950;28;20062;-66
2022/06/25 10:16:21;;;;;;;4.13;3.72;;;;;;;32.38;31.91;96649.66;4987869;28;20065;-66
2022/06/25 10:18:49;;;;;;;5.20;3.97;;;;;;;32.73;32.17;96675.63;4987464;28;20090;-64
2022/06/25 10:21:21;;;;;;;4.70;4.32;;;;;;;31.37;31.91;96452.59;4985881;28;20046;-65
2022/06/25 10:23:51;;;;;;;3.92;3.72;;;;;;;32.83;31.21;96671.16;4985656;28;20073;-66
2022/06/25 10:26:19;;;;;;;4.47;4.07;;;;;;;32.97;31.49;96670.09;4987536;28;20097;-67
2022/06/25 10:28:47;;;;;;;4.85;4.45;;;;;;;33.15;30.61;96678.09;4986036;28;20061;-66
2022/06/25 10:31:16;;;;;;;5.20;4.40;;;;;;;33.02;31.55;96657.78;4987010;28;20525;-66
2022/06/25 10:34:00;;;;;;;5.00;3.40;;;;;;;32.72;31.21;96662.59;4985849;28;20082;-67
2022/06/25 10:36:43;;;;;;;4.68;4.00;;;;;;;32.82;32.16;96666.72;4986757;28;20547;-64
2022/06/25 10:39:28;;;;;;;6.37;3.80;;;;;;;33.33;31.72;96671.72;4984896;28;20065;-66
2022/06/25 10:45:29;;;;;;;3.67;3.38;;;;;;;33.96;30.66;96676.53;4985360;28;20149;-63
2022/06/25 10:47:58;;;;;;;4.43;4.05;;;;;;;33.39;31.27;96706.16;4985077;28;20434;-65
2022/06/25 10:50:27;;;;;;;3.92;3.70;;;;;;;33.23;31.56;96667.59;4983522;28;20081;-65
2022/06/25 10:53:03;;;;;;;5.13;4.03;;;;;;;33.36;30.83;96664.91;4986337;28;20713;-65
2022/06/25 10:55:37;;;;;;;5.05;3.60;;;;;;;33.60;31.12;96667.13;4986829;28;20042;-65
2022/06/25 10:58:21;;;;;;;7.05;4.85;;;;;;;33.39;31.14;96632.28;4985891;28;20054;-65
2022/06/25 11:01:02;;;;;;;4.38;4.07;;;;;;;33.52;30.99;96660.41;4986613;28;20511;-65
2022/06/25 11:03:29;;;;;;;5.95;4.40;;;;;;;33.30;31.66;96667.03;4986700;28;20058;-65
2022/06/25 11:05:57;;;;;;;5.28;4.78;;;;;;;33.04;31.55;96666.66;4986947;28;20062;-64
2022/06/25 11:08:35;;;;;;;9.65;4.57;;;;;;;32.45;31.73;96626.19;4985341;28;20062;-66
2022/06/25 11:11:03;;;;;;;5.38;4.50;;;;;;;32.10;33.69;96668.97;4986686;28;20062;-65
2022/06/25 11:13:30;;;;;;;5.78;4.93;;;;;;;31.76;33.38;96661.63;4985159;28;20055;-65
2022/06/25 11:15:57;;;;;;;5.63;4.25;;;;;;;31.27;33.68;96659.50;4985099;28;20053;-66
2022/06/25 11:18:24;;;;;;;5.18;3.97;;;;;;;30.27;34.73;96579.00;4986455;28;20058;-65
2022/06/25 11:20:51;;;;;;;4.45;4.07;;;;;;;30.70;33.78;96529.00;4986054;28;20054;-66
2022/06/25 11:23:18;;;;;;;4.88;4.10;;;;;;;31.92;33.51;96653.09;4986364;28;20046;-65
2022/06/25 11:28:53;;;;;;;4.93;4.00;;;;;;;32.22;32.84;96661.91;4986787;28;20428;-65
2022/06/25 11:31:22;;;;;;;4.68;4.38;;;;;;;32.38;32.51;96661.13;4986732;28;20069;-65
2022/06/25 11:33:51;;;;;;;4.32;3.92;;;;;;;32.68;32.32;96656.34;4984955;28;20504;-65
2022/06/25 11:36:20;;;;;;;5.18;4.20;;;;;;;33.01;32.05;96653.34;4984528;28;20050;-65
2022/06/25 11:38:52;;;;;;;5.55;4.80;;;;;;;32.66;32.50;96647.47;4986344;28;20433;-63
2022/06/25 11:41:23;;;;;;;5.60;5.20;;;;;;;32.55;32.61;96652.50;4986155;28;20081;-64
2022/06/25 11:43:50;;;;;;;6.25;4.40;;;;;;;31.52;35.34;96652.78;4986083;28;20427;-64
2022/06/25 11:46:19;;;;;;;5.72;5.32;;;;;;;32.36;34.09;96629.28;4985880;28;20631;-64
2022/06/25 11:48:47;;;;;;;5.43;4.72;;;;;;;32.52;32.84;96574.00;4984690;28;20046;-65
2022/06/25 11:51:25;;;;;;;4.60;4.20;;;;;;;32.99;32.18;96564.13;4986168;28;20448;-64
2022/06/25 11:53:53;;;;;;;5.18;4.32;;;;;;;33.91;32.21;96640.78;4984821;28;20265;-64
2022/06/25 11:56:20;;;;;;;5.10;4.63;;;;;;;34.68;31.17;96631.38;4985910;28;20062;-65
2022/06/25 11:58:47;;;;;;;5.10;4.70;;;;;;;35.31;30.16;96633.72;4985982;28;20062;-65
2022/06/25 12:01:14;;;;;;;4.97;4.53;;;;;;;35.29;29.98;96629.81;4985841;28;20443;-65